createdAt,value
2023-03-11T00:00:06.885Z,1.1
2023-03-11T00:02:02.981Z,1.2
2023-03-11T00:04:02.721Z,1.2
2023-03-11T00:06:03.813Z,1.2
2023-03-11T00:08:05.335Z,1.1
2023-03-11T00:10:02.853Z,1.4
2023-03-11T00:12:03.910Z,1.4
2023-03-11T00:14:02.795Z,1.3
2023-03-11T00:16:03.078Z,1.4
2023-03-11T00:18:02.909Z,2.2
2023-03-11T00:20:04.706Z,2.5
2023-03-11T00:22:03.816Z,2.5
2023-03-11T00:24:03.916Z,2.4
2023-03-11T00:26:02.959Z,2.5
2023-03-11T00:28:03.240Z,3.5
2023-03-11T00:30:03.929Z,3.9
2023-03-11T00:32:02.704Z,3.8
2023-03-11T00:34:03.463Z,3.5
2023-03-11T00:36:03.398Z,3.6
2023-03-11T00:38:05.937Z,4.6
2023-03-11T00:40:02.934Z,4.2
2023-03-11T00:42:03.458Z,3.9
2023-03-11T00:44:02.929Z,3.4
2023-03-11T00:46:04.495Z,3.7
2023-03-11T00:48:02.716Z,3.4
2023-03-11T00:50:03.296Z,3.7
2023-03-11T00:52:03.939Z,3.9
2023-03-11T00:54:03.423Z,3.4
2023-03-11T00:56:08.422Z,3.4
2023-03-11T00:58:06.038Z,2.8
2023-03-11T01:00:03.759Z,2.7
2023-03-11T01:02:02.928Z,3.3
2023-03-11T01:04:02.933Z,2.5
2023-03-11T01:06:03.842Z,2.9
2023-03-11T01:08:04.616Z,2.7
2023-03-11T01:10:03.145Z,2.7
2023-03-11T01:12:03.456Z,2.7
2023-03-11T01:14:03.946Z,2.7
2023-03-11T01:16:03.493Z,2.6
2023-03-11T01:18:04.609Z,2.9
2023-03-11T01:20:06.000Z,2.9
2023-03-11T01:22:03.431Z,2.7
2023-03-11T01:24:03.619Z,3.3
2023-03-11T01:26:02.932Z,3.2
2023-03-11T01:28:03.383Z,3.4
2023-03-11T01:30:03.768Z,3.8
2023-03-11T01:32:02.686Z,4.0
2023-03-11T01:34:03.022Z,3.5
2023-03-11T01:36:03.894Z,3.1
2023-03-11T01:38:03.428Z,3.1
2023-03-11T01:40:02.807Z,3.2
2023-03-11T01:42:03.455Z,2.8
2023-03-11T01:44:04.534Z,3.3
2023-03-11T01:46:12.762Z,3.0
2023-03-11T01:48:03.710Z,3.2
2023-03-11T01:50:06.970Z,3.4
2023-03-11T01:52:07.448Z,3.1
2023-03-11T01:54:06.924Z,2.8
2023-03-11T01:56:04.420Z,2.7
2023-03-11T01:58:08.027Z,2.7
2023-03-11T02:00:09.093Z,2.6
2023-03-11T02:02:09.952Z,2.5
2023-03-11T02:04:04.056Z,2.6
2023-03-11T02:06:06.069Z,2.4
2023-03-11T02:08:03.532Z,3.0
2023-03-11T02:10:04.462Z,3.0
2023-03-11T02:12:04.085Z,3.0
2023-03-11T02:14:07.254Z,2.9
2023-03-11T02:16:04.139Z,2.8
2023-03-11T02:18:05.555Z,3.1
2023-03-11T02:20:15.128Z,2.3
2023-03-11T02:22:04.175Z,2.1
2023-03-11T02:24:12.342Z,2.9
2023-03-11T02:26:10.043Z,3.3
2023-03-11T02:28:05.529Z,2.5
2023-03-11T02:30:04.760Z,2.6
2023-03-11T02:32:07.069Z,3.2
2023-03-11T02:34:06.146Z,3.6
2023-03-11T02:36:03.977Z,2.9
2023-03-11T02:38:03.833Z,3.8
2023-03-11T02:40:21.775Z,3.4
2023-03-11T02:42:09.424Z,3.2
2023-03-11T02:44:04.912Z,3.1
2023-03-11T02:46:04.872Z,3.6
2023-03-11T02:48:04.567Z,2.2
2023-03-11T02:50:03.470Z,2.1
2023-03-11T02:52:04.291Z,2.8
2023-03-11T02:54:05.562Z,2.9
2023-03-11T02:56:02.807Z,2.1
2023-03-11T02:58:02.912Z,3.1
2023-03-11T03:00:13.006Z,2.7
2023-03-11T03:02:03.252Z,2.7
2023-03-11T03:04:02.820Z,2.7
2023-03-11T03:06:03.636Z,2.5
2023-03-11T03:08:02.879Z,2.2
2023-03-11T03:10:03.332Z,2.1
2023-03-11T03:12:04.338Z,1.8
2023-03-11T03:14:03.054Z,1.7
2023-03-11T03:16:03.315Z,1.8
2023-03-11T03:18:03.006Z,2.0
2023-03-11T03:20:07.032Z,2.1
2023-03-11T03:22:03.484Z,1.6
2023-03-11T03:24:03.400Z,2.2
2023-03-11T03:26:04.132Z,2.1
2023-03-11T03:28:03.644Z,1.8
2023-03-11T03:30:04.230Z,2.1
2023-03-11T03:32:02.806Z,2.3
2023-03-11T03:34:02.882Z,2.3
2023-03-11T03:36:06.106Z,2.2
2023-03-11T03:38:03.567Z,2.5
2023-03-11T03:40:07.474Z,2.5
2023-03-11T03:42:03.424Z,2.4
2023-03-11T03:44:02.830Z,2.9
2023-03-11T03:46:05.074Z,3.0
2023-03-11T03:48:03.548Z,4.4
2023-03-11T03:50:04.264Z,4.6
2023-03-11T03:52:05.163Z,2.8
2023-03-11T03:54:03.315Z,3.2
2023-03-11T03:56:04.339Z,2.8
2023-03-11T03:58:02.885Z,2.8
2023-03-11T04:00:04.208Z,3.1
2023-03-11T04:02:02.873Z,2.2
2023-03-11T04:04:02.919Z,2.2
2023-03-11T04:06:15.693Z,2.4
2023-03-11T04:08:02.740Z,2.4
2023-03-11T04:10:03.237Z,2.6
2023-03-11T04:12:02.750Z,2.8
2023-03-11T04:14:02.811Z,3.3
2023-03-11T04:16:04.034Z,2.4
2023-03-11T04:18:02.654Z,2.6
2023-03-11T04:20:03.817Z,2.2
2023-03-11T04:22:02.951Z,3.4
2023-03-11T04:24:03.552Z,3.7
2023-03-11T04:26:04.040Z,4.1
2023-03-11T04:28:02.968Z,3.2
2023-03-11T04:30:02.669Z,3.0
2023-03-11T04:32:02.830Z,4.3
2023-03-11T04:34:03.230Z,3.4
2023-03-11T04:36:06.549Z,4.1
2023-03-11T04:38:03.139Z,3.3
2023-03-11T04:40:03.769Z,3.7
2023-03-11T04:42:04.091Z,4.0
2023-03-11T04:44:03.268Z,3.9
2023-03-11T04:46:02.958Z,3.1
2023-03-11T04:48:02.684Z,3.0
2023-03-11T04:50:03.119Z,3.3
2023-03-11T04:52:03.369Z,3.4
2023-03-11T04:54:02.737Z,3.3
2023-03-11T04:56:03.420Z,4.2
2023-03-11T04:58:02.960Z,3.2
2023-03-11T05:00:05.157Z,4.1
2023-03-11T05:02:02.834Z,2.9
2023-03-11T05:04:03.144Z,3.0
2023-03-11T05:06:02.714Z,3.8
2023-03-11T05:08:03.395Z,4.1
2023-03-11T05:10:05.549Z,3.1
2023-03-11T05:12:03.898Z,2.9
2023-03-11T05:14:03.526Z,3.2
2023-03-11T05:16:02.812Z,2.5
2023-03-11T05:18:02.746Z,3.5
2023-03-11T05:20:05.930Z,2.7
2023-03-11T05:22:04.174Z,2.7
2023-03-11T05:24:02.652Z,2.6
2023-03-11T05:26:02.987Z,1.8
2023-03-11T05:28:02.855Z,2.0
2023-03-11T05:30:02.692Z,1.8
2023-03-11T05:32:03.589Z,1.9
2023-03-11T05:34:03.704Z,2.1
2023-03-11T05:36:08.189Z,1.7
2023-03-11T05:38:02.902Z,2.2
2023-03-11T05:40:06.229Z,2.2
2023-03-11T05:42:02.711Z,2.0
2023-03-11T05:44:02.845Z,2.9
2023-03-11T05:46:03.128Z,2.2
2023-03-11T05:48:02.688Z,1.9
2023-03-11T05:50:04.462Z,2.6
2023-03-11T05:52:02.699Z,1.8
2023-03-11T05:54:02.784Z,2.0
2023-03-11T05:56:04.801Z,2.3
2023-03-11T05:58:03.365Z,2.3
2023-03-11T06:00:05.561Z,2.0
2023-03-11T06:02:03.599Z,2.8
2023-03-11T06:04:03.137Z,2.1
2023-03-11T06:06:05.104Z,2.6
2023-03-11T06:08:02.913Z,2.4
2023-03-11T06:10:03.169Z,2.4
2023-03-11T06:12:02.670Z,2.6
2023-03-11T06:14:03.432Z,2.1
2023-03-11T06:16:03.626Z,1.9
2023-03-11T06:18:03.694Z,2.3
2023-03-11T06:20:05.029Z,2.3
2023-03-11T06:22:02.952Z,2.3
2023-03-11T06:24:03.563Z,1.6
2023-03-11T06:26:05.775Z,1.5
2023-03-11T06:28:02.782Z,1.5
2023-03-11T06:30:02.745Z,1.7
2023-03-11T06:32:03.596Z,1.9
2023-03-11T06:34:03.733Z,1.6
2023-03-11T06:36:05.298Z,1.9
2023-03-11T06:38:03.507Z,1.4
2023-03-11T06:40:04.577Z,1.6
2023-03-11T06:42:03.436Z,1.6
2023-03-11T06:44:03.915Z,1.7
2023-03-11T06:46:09.272Z,1.6
2023-03-11T06:48:02.656Z,1.7
2023-03-11T06:50:06.294Z,2.2
2023-03-11T06:52:02.709Z,2.2
2023-03-11T06:54:02.955Z,1.9
2023-03-11T06:56:06.962Z,2.4
2023-03-11T06:58:02.885Z,2.7
2023-03-11T07:00:06.121Z,2.2
2023-03-11T07:02:04.369Z,2.4
2023-03-11T07:04:03.482Z,3.2
2023-03-11T07:06:06.259Z,3.1
2023-03-11T07:08:02.889Z,3.3
2023-03-11T07:10:02.664Z,4.0
2023-03-11T07:12:02.701Z,2.7
2023-03-11T07:14:02.834Z,3.5
2023-03-11T07:16:06.937Z,3.8
2023-03-11T07:18:02.702Z,4.1
2023-03-11T07:20:03.727Z,4.3
2023-03-11T07:22:02.693Z,3.3
2023-03-11T07:24:04.465Z,3.5
2023-03-11T07:26:04.526Z,3.5
2023-03-11T07:28:03.498Z,3.1
2023-03-11T07:30:04.284Z,2.5
2023-03-11T07:32:02.957Z,2.0
2023-03-11T07:34:05.456Z,2.6
2023-03-11T07:36:05.735Z,2.8
2023-03-11T07:38:02.864Z,2.3
2023-03-11T07:40:02.913Z,2.9
2023-03-11T07:42:04.268Z,2.4
2023-03-11T07:44:04.211Z,1.9
2023-03-11T07:46:06.266Z,2.1
2023-03-11T07:48:02.726Z,1.6
2023-03-11T07:50:03.109Z,1.9
2023-03-11T07:52:03.913Z,2.0
2023-03-11T07:54:04.141Z,1.6
2023-03-11T07:56:04.943Z,2.3
2023-03-11T07:58:02.726Z,1.6
2023-03-11T08:00:03.830Z,2.3
2023-03-11T08:02:04.559Z,2.3
2023-03-11T08:04:05.312Z,2.0
2023-03-11T08:06:03.263Z,1.3
2023-03-11T08:08:03.322Z,1.3
2023-03-11T08:10:03.969Z,1.5
2023-03-11T08:12:03.480Z,1.8
2023-03-11T08:14:03.041Z,1.3
2023-03-11T08:16:05.282Z,1.9
2023-03-11T08:18:02.680Z,1.9
2023-03-11T08:20:07.509Z,1.3
2023-03-11T08:22:03.875Z,1.3
2023-03-11T08:24:05.529Z,1.4
2023-03-11T08:26:04.426Z,1.6
2023-03-11T08:28:02.765Z,1.6
2023-03-11T08:30:02.864Z,1.5
2023-03-11T08:32:03.829Z,1.5
2023-03-11T08:34:05.624Z,1.3
2023-03-11T08:36:03.414Z,1.3
2023-03-11T08:38:02.807Z,1.4
2023-03-11T08:40:02.793Z,1.5
2023-03-11T08:42:03.637Z,2.0
2023-03-11T08:44:03.003Z,1.5
2023-03-11T08:46:06.280Z,1.6
2023-03-11T08:48:02.854Z,1.4
2023-03-11T08:50:03.287Z,1.7
2023-03-11T08:52:03.749Z,1.6
2023-03-11T08:54:04.088Z,1.5
2023-03-11T08:56:02.887Z,1.5
2023-03-11T08:58:03.633Z,1.6
2023-03-11T09:00:03.011Z,1.4
2023-03-11T09:02:03.338Z,1.4
2023-03-11T09:04:02.778Z,1.5
2023-03-11T09:06:05.113Z,1.5
2023-03-11T09:08:05.651Z,1.3
2023-03-11T09:10:04.304Z,1.4
2023-03-11T09:12:02.661Z,1.6
2023-03-11T09:14:02.732Z,1.5
2023-03-11T09:16:05.386Z,1.5
2023-03-11T09:18:03.068Z,1.3
2023-03-11T09:20:04.528Z,1.4
2023-03-11T09:22:03.629Z,1.5
2023-03-11T09:24:05.695Z,1.5
2023-03-11T09:26:03.544Z,1.1
2023-03-11T09:28:02.670Z,1.8
2023-03-11T09:30:02.774Z,2.1
2023-03-11T09:32:03.086Z,1.8
2023-03-11T09:34:03.236Z,1.6
2023-03-11T09:36:02.943Z,1.4
2023-03-11T09:38:02.749Z,1.4
2023-03-11T09:40:02.954Z,1.5
2023-03-11T09:42:11.338Z,1.7
2023-03-11T09:44:12.424Z,1.7
2023-03-11T09:46:15.969Z,1.6
2023-03-11T09:48:20.104Z,2.2
2023-03-11T09:50:16.228Z,1.7
2023-03-11T09:52:09.707Z,1.4
2023-03-11T09:54:05.832Z,1.4
2023-03-11T09:56:07.296Z,1.4
2023-03-11T09:58:09.693Z,1.4
2023-03-11T10:00:12.541Z,1.6
2023-03-11T10:02:03.686Z,1.6
2023-03-11T10:04:09.470Z,1.5
2023-03-11T10:06:15.815Z,1.3
2023-03-11T10:08:12.306Z,1.4
2023-03-11T10:10:03.801Z,1.8
2023-03-11T10:12:14.856Z,2.1
2023-03-11T10:14:11.283Z,2.1
2023-03-11T10:16:13.269Z,2.6
2023-03-11T10:18:20.326Z,3.5
2023-03-11T10:20:09.340Z,3.7
2023-03-11T10:22:13.408Z,3.0
2023-03-11T10:24:17.815Z,3.6
2023-03-11T10:26:13.054Z,2.3
2023-03-11T10:28:08.189Z,1.8
2023-03-11T10:30:10.134Z,1.8
2023-03-11T10:32:12.752Z,1.9
2023-03-11T10:34:10.921Z,2.2
2023-03-11T10:36:06.662Z,1.7
2023-03-11T10:38:11.953Z,2.3
2023-03-11T10:40:15.501Z,2.1
2023-03-11T10:42:06.235Z,2.4
2023-03-11T10:44:06.590Z,1.9
2023-03-11T10:46:07.849Z,1.6
2023-03-11T10:48:02.686Z,1.7
2023-03-11T10:50:02.828Z,1.6
2023-03-11T10:52:04.281Z,1.7
2023-03-11T10:54:04.265Z,1.8
2023-03-11T10:56:02.912Z,1.6
2023-03-11T10:58:11.928Z,1.5
2023-03-11T11:00:09.200Z,1.6
2023-03-11T11:02:21.748Z,1.5
2023-03-11T11:04:03.637Z,1.9
2023-03-11T11:06:06.611Z,1.5
2023-03-11T11:08:06.120Z,2.2
2023-03-11T11:10:15.323Z,3.2
2023-03-11T11:12:05.990Z,5.1
2023-03-11T11:14:02.733Z,8.7
2023-03-11T11:16:05.404Z,9.7
2023-03-11T11:18:06.589Z,9.2
2023-03-11T11:20:12.733Z,10.2
2023-03-11T11:22:06.175Z,10.8
2023-03-11T11:24:09.924Z,11.1
2023-03-11T11:26:06.018Z,12.1
2023-03-11T11:28:14.171Z,10.3
2023-03-11T11:30:15.774Z,9.5
2023-03-11T11:32:20.850Z,7.0
2023-03-11T11:34:02.888Z,6.7
2023-03-11T11:36:05.733Z,4.5
2023-03-11T11:38:04.060Z,4.5
2023-03-11T11:40:11.373Z,3.0
2023-03-11T11:42:03.755Z,1.7
2023-03-11T11:44:05.746Z,1.6
2023-03-11T11:46:07.390Z,1.7
2023-03-11T11:48:10.715Z,1.7
2023-03-11T11:50:05.499Z,2.4
2023-03-11T11:52:09.436Z,2.8
2023-03-11T11:54:14.940Z,2.6
2023-03-11T11:56:02.892Z,2.5
2023-03-11T11:58:05.102Z,2.4
2023-03-11T12:00:09.093Z,2.5
2023-03-11T12:02:17.883Z,2.3
2023-03-11T12:04:20.432Z,2.5
2023-03-11T12:06:10.758Z,2.2
2023-03-11T12:08:12.925Z,2.0
2023-03-11T12:10:23.174Z,3.2
2023-03-11T12:12:15.880Z,2.6
2023-03-11T12:14:09.835Z,2.7
2023-03-11T12:16:11.195Z,3.1
2023-03-11T12:18:09.551Z,2.6
2023-03-11T12:20:10.863Z,3.0
2023-03-11T12:22:21.703Z,2.5
2023-03-11T12:24:18.187Z,4.7
2023-03-11T12:26:15.796Z,4.7
2023-03-11T12:28:16.840Z,5.9
2023-03-11T12:30:12.057Z,6.9
2023-03-11T12:32:03.725Z,6.6
2023-03-11T12:34:07.213Z,7.6
2023-03-11T12:36:05.566Z,6.9
2023-03-11T12:38:08.081Z,7.7
2023-03-11T12:40:21.710Z,8.8
2023-03-11T12:42:16.163Z,10.0
2023-03-11T12:44:06.064Z,10.0
2023-03-11T12:46:04.735Z,8.9
2023-03-11T12:48:21.872Z,9.1
2023-03-11T12:50:21.705Z,8.7
2023-03-11T12:52:06.152Z,8.7
2023-03-11T12:54:21.702Z,9.2
2023-03-11T12:56:10.595Z,9.2
2023-03-11T12:58:23.839Z,5.8
2023-03-11T13:00:17.731Z,6.1
2023-03-11T13:02:21.178Z,10.2
2023-03-11T13:04:20.422Z,8.5
2023-03-11T13:06:19.540Z,6.6
2023-03-11T13:08:09.727Z,6.6
2023-03-11T13:10:13.255Z,7.5
2023-03-11T13:12:02.730Z,10.0
2023-03-11T13:14:20.645Z,9.0
2023-03-11T13:16:21.822Z,10.9
2023-03-11T13:18:13.528Z,10.9
2023-03-11T13:20:03.901Z,9.6
2023-03-11T13:22:04.691Z,10.7
2023-03-11T13:24:22.150Z,12.1
2023-03-11T13:26:21.764Z,12.2
2023-03-11T13:28:21.761Z,10.6
2023-03-11T13:30:10.019Z,11.5
2023-03-11T13:32:21.020Z,11.8
2023-03-11T13:34:13.119Z,11.6
2023-03-11T13:36:14.891Z,11.7
2023-03-11T13:38:18.378Z,10.9
2023-03-11T13:40:15.624Z,10.7
2023-03-11T13:42:05.255Z,11.0
2023-03-11T13:44:14.194Z,10.3
2023-03-11T13:46:11.964Z,10.1
2023-03-11T13:48:07.351Z,10.3
2023-03-11T13:50:09.812Z,10.3
2023-03-11T13:52:07.164Z,10.5
2023-03-11T13:54:06.078Z,11.1
2023-03-11T13:56:04.420Z,11.6
2023-03-11T13:58:16.338Z,10.8
2023-03-11T14:00:16.576Z,11.5
2023-03-11T14:02:17.040Z,11.4
2023-03-11T14:04:02.880Z,11.8
2023-03-11T14:06:06.785Z,12.1
2023-03-11T14:08:13.738Z,12.5
2023-03-11T14:10:17.267Z,11.6
2023-03-11T14:12:07.308Z,11.3
2023-03-11T14:14:12.746Z,10.7
2023-03-11T14:16:06.002Z,9.6
2023-03-11T14:18:21.955Z,10.3
2023-03-11T14:20:06.708Z,9.7
2023-03-11T14:22:07.787Z,7.8
2023-03-11T14:24:04.107Z,8.6
2023-03-11T14:26:08.343Z,8.7
2023-03-11T14:28:05.292Z,8.1
2023-03-11T14:30:03.264Z,8.8
2023-03-11T14:32:17.777Z,7.1
2023-03-11T14:34:06.837Z,5.5
2023-03-11T14:36:11.058Z,8.0
2023-03-11T14:38:12.711Z,9.9
2023-03-11T14:40:03.806Z,9.1
2023-03-11T14:42:09.028Z,9.7
2023-03-11T14:44:04.185Z,7.6
2023-03-11T14:46:03.833Z,5.3
2023-03-11T14:48:09.013Z,7.2
2023-03-11T14:50:04.721Z,7.9
2023-03-11T14:52:09.239Z,7.1
2023-03-11T14:54:07.385Z,7.9
2023-03-11T14:56:06.918Z,7.4
2023-03-11T14:58:06.273Z,9.8
2023-03-11T15:00:07.483Z,6.3
2023-03-11T15:02:17.482Z,6.4
2023-03-11T15:04:09.015Z,5.8
2023-03-11T15:06:07.129Z,6.8
2023-03-11T15:08:07.166Z,5.9
2023-03-11T15:10:06.838Z,4.3
2023-03-11T15:12:05.383Z,7.8
2023-03-11T15:14:17.701Z,5.7
2023-03-11T15:16:06.139Z,7.5
2023-03-11T15:18:04.136Z,7.1
2023-03-11T15:20:04.428Z,6.2
2023-03-11T15:22:15.378Z,5.6
2023-03-11T15:24:06.265Z,6.0
2023-03-11T15:26:04.094Z,6.0
2023-03-11T15:28:21.658Z,6.7
2023-03-11T15:30:15.881Z,7.3
2023-03-11T15:32:21.963Z,6.7
2023-03-11T15:34:20.880Z,5.3
2023-03-11T15:36:02.704Z,5.3
2023-03-11T15:38:13.673Z,5.0
2023-03-11T15:40:18.154Z,3.9
2023-03-11T15:42:13.152Z,5.6
2023-03-11T15:44:07.015Z,5.1
2023-03-11T15:46:03.965Z,5.0
2023-03-11T15:48:02.683Z,3.8
2023-03-11T15:50:23.483Z,4.0
2023-03-11T15:52:03.068Z,1.8
2023-03-11T15:54:02.870Z,2.1
2023-03-11T15:56:12.137Z,1.6
2023-03-11T15:58:08.778Z,1.4
2023-03-11T16:00:04.399Z,1.6
2023-03-11T16:02:03.694Z,1.5
2023-03-11T16:04:02.827Z,1.6
2023-03-11T16:06:02.864Z,1.3
2023-03-11T16:08:03.626Z,1.7
2023-03-11T16:10:04.361Z,1.7
2023-03-11T16:12:09.371Z,1.8
2023-03-11T16:14:03.490Z,1.8
2023-03-11T16:16:04.664Z,1.5
2023-03-11T16:18:05.633Z,1.5
2023-03-11T16:20:02.848Z,1.7
2023-03-11T16:22:04.488Z,1.8
2023-03-11T16:24:04.410Z,1.5
2023-03-11T16:26:05.730Z,1.5
2023-03-11T16:28:03.948Z,1.7
2023-03-11T16:30:03.929Z,2.4
2023-03-11T16:32:02.733Z,2.1
2023-03-11T16:34:02.737Z,1.5
2023-03-11T16:36:03.624Z,1.4
2023-03-11T16:38:03.069Z,1.2
2023-03-11T16:40:03.874Z,1.4
2023-03-11T16:42:02.925Z,1.3
2023-03-11T16:44:02.691Z,1.5
2023-03-11T16:46:03.308Z,1.4
2023-03-11T16:48:05.144Z,1.8
2023-03-11T16:50:03.922Z,1.5
2023-03-11T16:52:03.118Z,1.3
2023-03-11T16:54:03.654Z,1.7
2023-03-11T16:56:04.709Z,1.7
2023-03-11T16:58:02.676Z,1.7
2023-03-11T17:00:05.092Z,1.6
2023-03-11T17:02:03.522Z,1.6
2023-03-11T17:04:02.643Z,1.3
2023-03-11T17:06:04.606Z,1.5
2023-03-11T17:08:04.008Z,1.5
2023-03-11T17:10:03.182Z,1.7
2023-03-11T17:12:03.963Z,1.4
2023-03-11T17:14:15.839Z,1.5
2023-03-11T17:16:03.293Z,1.7
2023-03-11T17:18:03.695Z,1.3
2023-03-11T17:20:03.214Z,1.2
2023-03-11T17:22:03.762Z,1.5
2023-03-11T17:24:02.732Z,1.6
2023-03-11T17:26:07.195Z,1.3
2023-03-11T17:28:02.689Z,1.4
2023-03-11T17:30:05.989Z,1.4
2023-03-11T17:32:05.854Z,1.6
2023-03-11T17:34:02.990Z,1.4
2023-03-11T17:36:05.091Z,1.4
2023-03-11T17:38:03.840Z,1.5
2023-03-11T17:40:03.946Z,1.5
2023-03-11T17:42:02.894Z,1.4
2023-03-11T17:44:02.733Z,1.6
2023-03-11T17:46:07.696Z,1.3
2023-03-11T17:48:02.681Z,1.7
2023-03-11T17:50:03.269Z,1.5
2023-03-11T17:52:03.588Z,1.6
2023-03-11T17:54:04.661Z,1.6
2023-03-11T17:56:04.030Z,1.4
2023-03-11T17:58:02.680Z,1.5
2023-03-11T18:00:05.457Z,1.5
2023-03-11T18:02:03.325Z,1.5
2023-03-11T18:04:04.131Z,1.4
2023-03-11T18:06:05.327Z,1.6
2023-03-11T18:08:02.766Z,1.5
2023-03-11T18:10:02.680Z,1.4
2023-03-11T18:12:03.067Z,1.5
2023-03-11T18:14:03.150Z,1.7
2023-03-11T18:16:06.241Z,1.5
2023-03-11T18:18:03.268Z,1.4
2023-03-11T18:20:05.188Z,1.7
2023-03-11T18:22:03.410Z,1.5
2023-03-11T18:24:02.765Z,1.4
2023-03-11T18:26:06.097Z,1.4
2023-03-11T18:28:03.556Z,1.5
2023-03-11T18:30:02.959Z,1.4
2023-03-11T18:32:03.458Z,1.5
2023-03-11T18:34:04.901Z,1.4
2023-03-11T18:36:11.462Z,1.4
2023-03-11T18:38:02.919Z,1.3
2023-03-11T18:40:05.445Z,1.7
2023-03-11T18:42:04.123Z,1.5
2023-03-11T18:44:03.129Z,1.4
2023-03-11T18:46:08.473Z,1.4
2023-03-11T18:48:03.258Z,1.3
2023-03-11T18:50:03.128Z,1.6
2023-03-11T18:52:03.507Z,1.4
2023-03-11T18:54:03.702Z,1.3
2023-03-11T18:56:06.108Z,1.3
2023-03-11T18:58:02.685Z,1.3
2023-03-11T19:00:03.889Z,1.4
2023-03-11T19:02:02.922Z,1.5
2023-03-11T19:04:02.868Z,1.6
2023-03-11T19:06:03.203Z,1.3
2023-03-11T19:08:03.258Z,1.4
2023-03-11T19:10:02.758Z,1.3
2023-03-11T19:12:03.398Z,1.4
2023-03-11T19:14:03.091Z,1.2
2023-03-11T19:16:04.412Z,1.5
2023-03-11T19:18:06.886Z,1.4
2023-03-11T19:20:03.641Z,1.2
2023-03-11T19:22:02.813Z,1.5
2023-03-11T19:24:03.508Z,1.6
2023-03-11T19:26:03.750Z,1.3
2023-03-11T19:28:02.845Z,1.5
2023-03-11T19:30:03.370Z,1.5
2023-03-11T19:32:03.542Z,1.4
2023-03-11T19:34:02.700Z,1.3
2023-03-11T19:36:05.535Z,1.4
2023-03-11T19:38:03.811Z,1.4
2023-03-11T19:40:03.039Z,1.3
2023-03-11T19:42:03.040Z,1.2
2023-03-11T19:44:03.750Z,1.4
2023-03-11T19:46:03.270Z,1.3
2023-03-11T19:48:03.510Z,1.4
2023-03-11T19:50:03.696Z,1.3
2023-03-11T19:52:09.221Z,1.5
2023-03-11T19:54:02.873Z,1.5
2023-03-11T19:56:04.427Z,1.4
2023-03-11T19:58:02.672Z,1.5
2023-03-11T20:00:03.585Z,1.4
2023-03-11T20:02:03.984Z,1.5
2023-03-11T20:04:02.830Z,1.4
2023-03-11T20:06:06.198Z,1.3
2023-03-11T20:08:03.462Z,1.4
2023-03-11T20:10:03.748Z,1.3
2023-03-11T20:12:02.895Z,1.4
2023-03-11T20:14:03.134Z,1.3
2023-03-11T20:16:08.489Z,1.6
2023-03-11T20:18:05.172Z,1.2
2023-03-11T20:20:03.430Z,1.5
2023-03-11T20:22:02.825Z,1.3
2023-03-11T20:24:03.532Z,1.5
2023-03-11T20:26:06.606Z,1.1
2023-03-11T20:28:02.757Z,1.2
2023-03-11T20:30:02.983Z,1.4
2023-03-11T20:32:04.218Z,1.3
2023-03-11T20:34:03.840Z,1.1
2023-03-11T20:36:04.827Z,1.5
2023-03-11T20:38:03.570Z,1.5
2023-03-11T20:40:03.224Z,1.4
2023-03-11T20:42:02.859Z,1.3
2023-03-11T20:44:02.892Z,1.4
2023-03-11T20:46:03.700Z,1.4
2023-03-11T20:48:02.908Z,1.4
2023-03-11T20:50:02.985Z,1.2
2023-03-11T20:52:03.264Z,1.3
2023-03-11T20:54:03.047Z,1.3
2023-03-11T20:56:07.448Z,1.3
2023-03-11T20:58:02.800Z,1.4
2023-03-11T21:00:06.093Z,1.5
2023-03-11T21:02:03.373Z,1.4
2023-03-11T21:04:04.137Z,1.3
2023-03-11T21:06:02.972Z,1.4
2023-03-11T21:08:03.826Z,1.4
2023-03-11T21:10:04.633Z,1.4
2023-03-11T21:12:03.567Z,1.5
2023-03-11T21:14:03.924Z,1.2
2023-03-11T21:16:02.858Z,1.3
2023-03-11T21:18:03.618Z,1.4
2023-03-11T21:20:05.347Z,1.3
2023-03-11T21:22:03.877Z,1.6
2023-03-11T21:24:04.147Z,1.6
2023-03-11T21:26:05.398Z,1.6
2023-03-11T21:28:02.678Z,1.6
2023-03-11T21:30:04.259Z,1.4
2023-03-11T21:32:03.291Z,1.5
2023-03-11T21:34:03.500Z,1.6
2023-03-11T21:36:03.421Z,1.4
2023-03-11T21:38:02.825Z,1.5
2023-03-11T21:40:03.683Z,1.3
2023-03-11T21:42:03.127Z,1.4
2023-03-11T21:44:02.789Z,1.4
2023-03-11T21:46:03.937Z,1.5
2023-03-11T21:48:06.225Z,1.3
2023-03-11T21:50:02.854Z,1.3
2023-03-11T21:52:02.793Z,1.3
2023-03-11T21:54:04.985Z,1.3
2023-03-11T21:56:04.711Z,1.4
2023-03-11T21:58:03.454Z,1.4
2023-03-11T22:00:05.586Z,1.3
2023-03-11T22:02:03.305Z,1.4
2023-03-11T22:04:03.466Z,1.4
2023-03-11T22:06:06.487Z,1.3
2023-03-11T22:08:03.962Z,1.5
2023-03-11T22:10:02.737Z,1.5
2023-03-11T22:12:04.244Z,1.4
2023-03-11T22:14:02.827Z,1.5
2023-03-11T22:16:04.700Z,1.6
2023-03-11T22:18:03.158Z,1.4
2023-03-11T22:20:05.377Z,1.4
2023-03-11T22:22:03.298Z,1.3
2023-03-11T22:24:02.893Z,1.5
2023-03-11T22:26:03.534Z,1.4
2023-03-11T22:28:02.773Z,1.6
2023-03-11T22:30:03.865Z,1.5
2023-03-11T22:32:02.752Z,1.3
2023-03-11T22:34:02.672Z,1.4
2023-03-11T22:36:04.375Z,1.4
2023-03-11T22:38:03.784Z,1.4
2023-03-11T22:40:03.859Z,1.6
2023-03-11T22:42:03.669Z,1.5
2023-03-11T22:44:02.747Z,1.3
2023-03-11T22:46:05.722Z,1.3
2023-03-11T22:48:03.634Z,1.3
2023-03-11T22:50:02.821Z,1.3
2023-03-11T22:52:02.822Z,1.4
2023-03-11T22:54:03.770Z,1.4
2023-03-11T22:56:08.547Z,1.4
2023-03-11T22:58:02.743Z,1.5
2023-03-11T23:00:05.912Z,1.3
2023-03-11T23:02:04.003Z,1.4
2023-03-11T23:04:02.748Z,1.4
2023-03-11T23:06:05.891Z,1.4
2023-03-11T23:08:02.870Z,1.5
2023-03-11T23:10:03.177Z,1.4
2023-03-11T23:12:04.308Z,1.4
2023-03-11T23:14:02.736Z,1.3
2023-03-11T23:16:04.976Z,1.3
2023-03-11T23:18:03.174Z,1.1
2023-03-11T23:20:05.123Z,1.3
2023-03-11T23:22:02.718Z,1.2
2023-03-11T23:24:05.618Z,1.2
2023-03-11T23:26:08.679Z,1.4
2023-03-11T23:28:04.482Z,1.2
2023-03-11T23:30:02.961Z,1.4
2023-03-11T23:32:02.786Z,1.3
2023-03-11T23:34:02.927Z,1.3
2023-03-11T23:36:05.276Z,1.4
2023-03-11T23:38:02.683Z,1.1
2023-03-11T23:40:04.595Z,1.5
2023-03-11T23:42:14.926Z,1.3
2023-03-11T23:44:02.744Z,1.3
2023-03-11T23:46:04.302Z,1.3
2023-03-11T23:48:03.245Z,1.3
2023-03-11T23:50:04.089Z,1.2
2023-03-11T23:52:03.573Z,1.2
2023-03-11T23:54:03.260Z,1.5
2023-03-11T23:56:07.966Z,1.1
2023-03-11T23:58:02.893Z,1.2
